createdAt,value
2018-01-23T00:00:59.357Z,1009.6
2018-01-23T00:01:59.235Z,1009.65
2018-01-23T00:02:59.464Z,1009.66
2018-01-23T00:03:59.212Z,1009.74
2018-01-23T00:04:59.183Z,1009.74
2018-01-23T00:05:59.547Z,1009.77
2018-01-23T00:06:59.307Z,1009.78
2018-01-23T00:08:00.111Z,1009.79
2018-01-23T00:08:59.375Z,1009.8
2018-01-23T00:09:59.218Z,1009.77
2018-01-23T00:10:59.262Z,1009.76
2018-01-23T00:11:59.331Z,1009.73
2018-01-23T00:13:00.114Z,1009.76
2018-01-23T00:13:59.818Z,1009.74
2018-01-23T00:14:59.286Z,1009.78
2018-01-23T00:15:59.477Z,1009.84
2018-01-23T00:16:59.338Z,1009.88
2018-01-23T00:17:59.283Z,1009.9
2018-01-23T00:19:00.313Z,1009.83
2018-01-23T00:19:59.775Z,1009.83
2018-01-23T00:20:59.397Z,1009.82
2018-01-23T00:21:59.323Z,1009.88
2018-01-23T00:22:59.255Z,1009.9
2018-01-23T00:23:59.554Z,1009.91
2018-01-23T00:24:59.211Z,1009.93
2018-01-23T00:25:59.248Z,1009.95
2018-01-23T00:26:59.328Z,1009.91
2018-01-23T00:27:59.468Z,1009.96
2018-01-23T00:28:59.371Z,1009.97
2018-01-23T00:30:00.150Z,1009.97
2018-01-23T00:30:59.251Z,1010.03
2018-01-23T00:31:59.935Z,1010.1
2018-01-23T00:33:00.274Z,1010.12
2018-01-23T00:33:59.344Z,1010.14
2018-01-23T00:34:59.688Z,1010.21
2018-01-23T00:35:59.591Z,1010.3
2018-01-23T00:37:00.963Z,1010.29
2018-01-23T00:37:59.510Z,1010.27
2018-01-23T00:38:59.495Z,1010.31
2018-01-23T00:39:59.358Z,1010.31
2018-01-23T00:40:59.894Z,1010.31
2018-01-23T00:41:59.405Z,1010.35
2018-01-23T00:42:59.366Z,1010.4
2018-01-23T00:43:59.421Z,1010.42
2018-01-23T00:44:59.289Z,1010.47
2018-01-23T00:45:59.360Z,1010.54
2018-01-23T00:47:00.093Z,1010.46
2018-01-23T00:47:59.381Z,1010.49
2018-01-23T00:48:59.378Z,1010.48
2018-01-23T00:49:59.339Z,1010.55
2018-01-23T00:50:59.321Z,1010.55
2018-01-23T00:51:59.373Z,1010.55
2018-01-23T00:52:59.927Z,1010.48
2018-01-23T00:53:59.315Z,1010.44
2018-01-23T00:54:59.322Z,1010.46
2018-01-23T00:55:59.279Z,1010.47
2018-01-23T00:56:59.402Z,1010.46
2018-01-23T00:58:00.552Z,1010.45
2018-01-23T00:58:59.278Z,1010.42
2018-01-23T00:59:59.474Z,1010.47
2018-01-23T01:01:00.205Z,1010.38
2018-01-23T01:01:59.771Z,1010.31
2018-01-23T01:02:59.418Z,1010.32
2018-01-23T01:03:59.359Z,1010.33
2018-01-23T01:04:59.446Z,1010.39
2018-01-23T01:05:59.936Z,1010.43
2018-01-23T01:07:00.118Z,1010.48
2018-01-23T01:07:59.419Z,1010.5
2018-01-23T01:08:59.922Z,1010.47
2018-01-23T01:09:59.321Z,1010.49
2018-01-23T01:10:59.356Z,1010.52
2018-01-23T01:12:00.395Z,1010.56
2018-01-23T01:12:59.372Z,1010.52
2018-01-23T01:13:59.701Z,1010.58
2018-01-23T01:14:59.535Z,1010.58
2018-01-23T01:15:59.339Z,1010.62
2018-01-23T01:16:59.282Z,1010.67
2018-01-23T01:17:59.632Z,1010.72
2018-01-23T01:18:59.450Z,1010.72
2018-01-23T01:19:59.653Z,1010.8
2018-01-23T01:20:59.425Z,1010.79
2018-01-23T01:21:59.368Z,1010.79
2018-01-23T01:22:59.423Z,1010.82
2018-01-23T01:23:59.393Z,1010.82
2018-01-23T01:24:59.319Z,1010.82
2018-01-23T01:25:59.353Z,1010.85
2018-01-23T01:26:59.413Z,1010.85
2018-01-23T01:27:59.411Z,1010.83
2018-01-23T01:28:59.376Z,1010.82
2018-01-23T01:30:00.215Z,1010.85
2018-01-23T01:31:00.684Z,1010.84
2018-01-23T01:32:00.128Z,1010.89
2018-01-23T01:33:00.162Z,1010.87
2018-01-23T01:34:01.370Z,1010.93
2018-01-23T01:34:59.356Z,1010.92
2018-01-23T01:36:00.117Z,1010.94
2018-01-23T01:36:59.416Z,1011.01
2018-01-23T01:37:59.425Z,1011.06
2018-01-23T01:38:59.423Z,1011.09
2018-01-23T01:39:59.409Z,1011.16
2018-01-23T01:40:59.591Z,1011.13
2018-01-23T01:42:00.212Z,1011.17
2018-01-23T01:42:59.480Z,1011.19
2018-01-23T01:43:59.405Z,1011.25
2018-01-23T01:44:59.619Z,1011.24
2018-01-23T01:46:00.173Z,1011.27
2018-01-23T01:46:59.635Z,1011.28
2018-01-23T01:47:59.728Z,1011.29
2018-01-23T01:49:00.003Z,1011.33
2018-01-23T01:50:02.210Z,1011.32
2018-01-23T01:50:59.334Z,1011.32
2018-01-23T01:52:00.146Z,1011.31
2018-01-23T01:52:59.404Z,1011.33
2018-01-23T01:53:59.546Z,1011.29
2018-01-23T01:54:59.412Z,1011.38
2018-01-23T01:55:59.495Z,1011.36
2018-01-23T01:56:59.759Z,1011.39
2018-01-23T01:57:59.661Z,1011.38
2018-01-23T01:59:00.116Z,1011.34
2018-01-23T01:59:59.388Z,1011.39
2018-01-23T02:00:59.506Z,1011.38
2018-01-23T02:01:59.441Z,1011.41
2018-01-23T02:02:59.658Z,1011.43
2018-01-23T02:03:59.933Z,1011.44
2018-01-23T02:04:59.358Z,1011.44
2018-01-23T02:05:59.471Z,1011.47
2018-01-23T02:06:59.445Z,1011.46
2018-01-23T02:07:59.436Z,1011.44
2018-01-23T02:08:59.685Z,1011.47
2018-01-23T02:09:59.497Z,1011.46
2018-01-23T02:11:00.231Z,1011.43
2018-01-23T02:12:00.941Z,1011.45
2018-01-23T02:12:59.485Z,1011.45
2018-01-23T02:13:59.389Z,1011.42
2018-01-23T02:14:59.467Z,1011.36
2018-01-23T02:16:00.360Z,1011.35
2018-01-23T02:16:59.396Z,1011.39
2018-01-23T02:17:59.550Z,1011.46
2018-01-23T02:19:01.486Z,1011.49
2018-01-23T02:19:59.498Z,1011.53
2018-01-23T02:20:59.539Z,1011.54
2018-01-23T02:21:59.395Z,1011.52
2018-01-23T02:22:59.370Z,1011.6
2018-01-23T02:23:59.378Z,1011.61
2018-01-23T02:25:00.275Z,1011.6
2018-01-23T02:26:00.127Z,1011.63
2018-01-23T02:27:00.566Z,1011.64
2018-01-23T02:28:00.103Z,1011.65
2018-01-23T02:28:59.514Z,1011.64
2018-01-23T02:29:59.454Z,1011.65
2018-01-23T02:30:59.745Z,1011.7
2018-01-23T02:31:59.605Z,1011.73
2018-01-23T02:32:59.375Z,1011.75
2018-01-23T02:33:59.765Z,1011.77
2018-01-23T02:34:59.573Z,1011.77
2018-01-23T02:35:59.575Z,1011.78
2018-01-23T02:37:00.202Z,1011.82
2018-01-23T02:38:00.450Z,1011.81
2018-01-23T02:38:59.699Z,1011.8
2018-01-23T02:39:59.773Z,1011.8
2018-01-23T02:40:59.557Z,1011.81
2018-01-23T02:41:59.525Z,1011.81
2018-01-23T02:43:00.328Z,1011.81
2018-01-23T02:44:00.055Z,1011.77
2018-01-23T02:45:00.261Z,1011.77
2018-01-23T02:45:59.502Z,1011.74
2018-01-23T02:46:59.468Z,1011.7
2018-01-23T02:48:01.065Z,1011.73
2018-01-23T02:48:59.621Z,1011.68
2018-01-23T02:49:59.434Z,1011.7
2018-01-23T02:50:59.769Z,1011.74
2018-01-23T02:52:00.555Z,1011.78
2018-01-23T02:52:59.566Z,1011.79
2018-01-23T02:53:59.539Z,1011.81
2018-01-23T02:54:59.511Z,1011.82
2018-01-23T02:55:59.562Z,1011.85
2018-01-23T02:56:59.657Z,1011.83
2018-01-23T02:58:00.113Z,1011.8
2018-01-23T02:58:59.479Z,1011.8
2018-01-23T03:00:01.573Z,1011.83
2018-01-23T03:01:00.553Z,1011.83
2018-01-23T03:01:59.486Z,1011.78
2018-01-23T03:02:59.565Z,1011.78
2018-01-23T03:03:59.566Z,1011.75
2018-01-23T03:04:59.582Z,1011.75
2018-01-23T03:05:59.413Z,1011.77
2018-01-23T03:06:59.570Z,1011.77
2018-01-23T03:07:59.633Z,1011.79
2018-01-23T03:08:59.523Z,1011.8
2018-01-23T03:10:00.914Z,1011.84
2018-01-23T03:10:59.589Z,1011.84
2018-01-23T03:11:59.503Z,1011.87
2018-01-23T03:13:00.528Z,1011.84
2018-01-23T03:14:00.064Z,1011.85
2018-01-23T03:14:59.503Z,1011.84
2018-01-23T03:16:00.500Z,1011.9
2018-01-23T03:17:00.496Z,1011.89
2018-01-23T03:17:59.652Z,1011.9
2018-01-23T03:19:00.123Z,1011.95
2018-01-23T03:19:59.509Z,1011.95
2018-01-23T03:20:59.582Z,1011.97
2018-01-23T03:21:59.460Z,1011.98
2018-01-23T03:23:01.645Z,1011.98
2018-01-23T03:23:59.769Z,1012.01
2018-01-23T03:24:59.496Z,1012.05
2018-01-23T03:25:59.566Z,1012.06
2018-01-23T03:26:59.507Z,1012.1
2018-01-23T03:28:00.601Z,1012.13
2018-01-23T03:28:59.528Z,1012.13
2018-01-23T03:29:59.743Z,1012.15
2018-01-23T03:30:59.520Z,1012.12
2018-01-23T03:31:59.528Z,1012.14
2018-01-23T03:32:59.565Z,1012.17
2018-01-23T03:33:59.458Z,1012.18
2018-01-23T03:35:00.495Z,1012.18
2018-01-23T03:35:59.512Z,1012.17
2018-01-23T03:36:59.740Z,1012.21
2018-01-23T03:37:59.776Z,1012.25
2018-01-23T03:39:00.577Z,1012.21
2018-01-23T03:40:00.495Z,1012.19
2018-01-23T03:41:00.640Z,1012.22
2018-01-23T03:42:01.337Z,1012.23
2018-01-23T03:42:59.876Z,1012.24
2018-01-23T03:43:59.578Z,1012.28
2018-01-23T03:44:59.662Z,1012.3
2018-01-23T03:45:59.935Z,1012.28
2018-01-23T03:46:59.902Z,1012.29
2018-01-23T03:47:59.574Z,1012.34
2018-01-23T03:48:59.540Z,1012.33
2018-01-23T03:49:59.666Z,1012.37
2018-01-23T03:50:59.570Z,1012.34
2018-01-23T03:51:59.861Z,1012.34
2018-01-23T03:52:59.905Z,1012.4
2018-01-23T03:54:00.525Z,1012.41
2018-01-23T03:55:00.001Z,1012.41
2018-01-23T03:55:59.516Z,1012.42
2018-01-23T03:56:59.565Z,1012.43
2018-01-23T03:57:59.566Z,1012.47
2018-01-23T03:59:00.368Z,1012.52
2018-01-23T03:59:59.553Z,1012.46
2018-01-23T04:00:59.842Z,1012.44
2018-01-23T04:02:00.353Z,1012.49
2018-01-23T04:02:59.450Z,1012.53
2018-01-23T04:03:59.502Z,1012.53
2018-01-23T04:05:00.166Z,1012.53
2018-01-23T04:06:00.148Z,1012.58
2018-01-23T04:07:00.305Z,1012.53
2018-01-23T04:07:59.789Z,1012.58
2018-01-23T04:08:59.716Z,1012.58
2018-01-23T04:10:00.240Z,1012.57
2018-01-23T04:10:59.631Z,1012.59
2018-01-23T04:12:00.592Z,1012.55
2018-01-23T04:12:59.637Z,1012.53
2018-01-23T04:13:59.717Z,1012.58
2018-01-23T04:15:00.978Z,1012.54
2018-01-23T04:16:00.494Z,1012.56
2018-01-23T04:16:59.702Z,1012.6
2018-01-23T04:18:00.657Z,1012.57
2018-01-23T04:18:59.854Z,1012.59
2018-01-23T04:19:59.760Z,1012.52
2018-01-23T04:20:59.726Z,1012.55
2018-01-23T04:22:00.530Z,1012.59
2018-01-23T04:22:59.625Z,1012.59
2018-01-23T04:23:59.737Z,1012.53
2018-01-23T04:25:00.149Z,1012.54
2018-01-23T04:25:59.752Z,1012.48
2018-01-23T04:26:59.674Z,1012.53
2018-01-23T04:27:59.677Z,1012.54
2018-01-23T04:28:59.732Z,1012.54
2018-01-23T04:30:00.893Z,1012.57
2018-01-23T04:30:59.640Z,1012.59
2018-01-23T04:32:00.390Z,1012.59
2018-01-23T04:32:59.757Z,1012.55
2018-01-23T04:33:59.626Z,1012.59
2018-01-23T04:35:00.286Z,1012.6
2018-01-23T04:35:59.577Z,1012.6
2018-01-23T04:36:59.721Z,1012.64
2018-01-23T04:38:01.037Z,1012.64
2018-01-23T04:38:59.639Z,1012.71
2018-01-23T04:39:59.613Z,1012.7
2018-01-23T04:40:59.722Z,1012.71
2018-01-23T04:41:59.639Z,1012.72
2018-01-23T04:43:00.592Z,1012.78
2018-01-23T04:43:59.864Z,1012.8
2018-01-23T04:44:59.781Z,1012.82
2018-01-23T04:46:00.298Z,1012.82
2018-01-23T04:47:00.391Z,1012.82
2018-01-23T04:48:00.272Z,1012.82
2018-01-23T04:48:59.584Z,1012.88
2018-01-23T04:49:59.637Z,1012.86
2018-01-23T04:50:59.912Z,1012.86
2018-01-23T04:51:59.605Z,1012.88
2018-01-23T04:53:00.771Z,1012.91
2018-01-23T04:53:59.821Z,1012.91
2018-01-23T04:54:59.983Z,1012.9
2018-01-23T04:56:00.338Z,1012.92
2018-01-23T04:56:59.833Z,1012.86
2018-01-23T04:57:59.648Z,1012.91
2018-01-23T04:59:00.392Z,1012.9
2018-01-23T04:59:59.666Z,1012.82
2018-01-23T05:00:59.682Z,1012.88
2018-01-23T05:01:59.620Z,1012.84
2018-01-23T05:02:59.723Z,1012.84
2018-01-23T05:03:59.621Z,1012.79
2018-01-23T05:04:59.782Z,1012.83
2018-01-23T05:05:59.667Z,1012.82
2018-01-23T05:07:00.382Z,1012.83
2018-01-23T05:07:59.704Z,1012.84
2018-01-23T05:09:00.298Z,1012.83
2018-01-23T05:09:59.735Z,1012.82
2018-01-23T05:11:00.097Z,1012.84
2018-01-23T05:11:59.741Z,1012.84
2018-01-23T05:12:59.869Z,1012.83
2018-01-23T05:14:01.561Z,1012.85
2018-01-23T05:15:00.000Z,1012.88
2018-01-23T05:15:59.880Z,1012.87
2018-01-23T05:17:00.761Z,1012.84
2018-01-23T05:18:00.566Z,1012.88
2018-01-23T05:19:00.573Z,1012.91
2018-01-23T05:20:02.281Z,1012.92
2018-01-23T05:20:59.663Z,1012.96
2018-01-23T05:22:00.275Z,1012.97
2018-01-23T05:23:01.119Z,1012.94
2018-01-23T05:23:59.744Z,1012.98
2018-01-23T05:24:59.772Z,1012.95
2018-01-23T05:25:59.725Z,1012.96
2018-01-23T05:26:59.796Z,1012.98
2018-01-23T05:28:00.514Z,1012.95
2018-01-23T05:28:59.876Z,1012.97
2018-01-23T05:30:00.552Z,1012.98
2018-01-23T05:30:59.806Z,1013
2018-01-23T05:31:59.655Z,1013.02
2018-01-23T05:32:59.829Z,1013.02
2018-01-23T05:33:59.976Z,1012.99
2018-01-23T05:34:59.726Z,1013.07
2018-01-23T05:36:00.540Z,1013.05
2018-01-23T05:36:59.855Z,1013.1
2018-01-23T05:37:59.717Z,1013.11
2018-01-23T05:38:59.854Z,1013.13
2018-01-23T05:40:00.562Z,1013.1
2018-01-23T05:40:59.755Z,1013.13
2018-01-23T05:41:59.759Z,1013.13
2018-01-23T05:42:59.949Z,1013.11
2018-01-23T05:44:00.048Z,1013.17
2018-01-23T05:45:00.122Z,1013.14
2018-01-23T05:45:59.752Z,1013.16
2018-01-23T05:47:00.684Z,1013.16
2018-01-23T05:47:59.738Z,1013.2
2018-01-23T05:48:59.739Z,1013.19
2018-01-23T05:50:00.127Z,1013.21
2018-01-23T05:51:00.472Z,1013.21
2018-01-23T05:51:59.715Z,1013.23
2018-01-23T05:52:59.810Z,1013.22
2018-01-23T05:53:59.742Z,1013.23
2018-01-23T05:54:59.784Z,1013.24
2018-01-23T05:55:59.944Z,1013.26
2018-01-23T05:56:59.819Z,1013.26
2018-01-23T05:57:59.835Z,1013.31
2018-01-23T05:58:59.762Z,1013.29
2018-01-23T06:00:00.597Z,1013.33
2018-01-23T06:00:59.779Z,1013.3
2018-01-23T06:01:59.785Z,1013.39
2018-01-23T06:02:59.834Z,1013.35
2018-01-23T06:04:00.491Z,1013.36
2018-01-23T06:05:00.073Z,1013.45
2018-01-23T06:05:59.726Z,1013.41
2018-01-23T06:07:00.145Z,1013.41
2018-01-23T06:07:59.929Z,1013.44
2018-01-23T06:08:59.807Z,1013.54
2018-01-23T06:09:59.825Z,1013.54
2018-01-23T06:10:59.821Z,1013.51
2018-01-23T06:11:59.960Z,1013.56
2018-01-23T06:13:00.641Z,1013.56
2018-01-23T06:13:59.976Z,1013.58
2018-01-23T06:14:59.806Z,1013.56
2018-01-23T06:16:00.000Z,1013.57
2018-01-23T06:16:59.947Z,1013.56
2018-01-23T06:17:59.887Z,1013.62
2018-01-23T06:19:00.044Z,1013.59
2018-01-23T06:20:00.536Z,1013.63
2018-01-23T06:21:02.674Z,1013.65
2018-01-23T06:22:00.016Z,1013.65
2018-01-23T06:23:00.056Z,1013.64
2018-01-23T06:23:59.871Z,1013.7
2018-01-23T06:25:01.158Z,1013.71
2018-01-23T06:25:59.937Z,1013.71
2018-01-23T06:26:59.799Z,1013.71
2018-01-23T06:27:59.839Z,1013.7
2018-01-23T06:29:00.449Z,1013.68
2018-01-23T06:29:59.882Z,1013.71
2018-01-23T06:30:59.902Z,1013.69
2018-01-23T06:31:59.998Z,1013.75
2018-01-23T06:32:59.873Z,1013.73
2018-01-23T06:33:59.879Z,1013.72
2018-01-23T06:35:00.729Z,1013.75
2018-01-23T06:35:59.913Z,1013.71
2018-01-23T06:37:00.628Z,1013.72
2018-01-23T06:37:59.889Z,1013.73
2018-01-23T06:38:59.958Z,1013.72
2018-01-23T06:40:01.307Z,1013.76
2018-01-23T06:40:59.859Z,1013.78
2018-01-23T06:41:59.861Z,1013.78
2018-01-23T06:42:59.843Z,1013.81
2018-01-23T06:43:59.932Z,1013.85
2018-01-23T06:45:00.703Z,1013.87
2018-01-23T06:45:59.872Z,1013.9
2018-01-23T06:46:59.850Z,1013.91
2018-01-23T06:48:01.146Z,1013.95
2018-01-23T06:48:59.905Z,1013.94
2018-01-23T06:50:00.209Z,1013.94
2018-01-23T06:51:00.904Z,1013.96
2018-01-23T06:52:00.104Z,1013.95
2018-01-23T06:52:59.932Z,1013.98
2018-01-23T06:54:01.128Z,1013.95
2018-01-23T06:55:00.265Z,1013.95
2018-01-23T06:55:59.980Z,1014
2018-01-23T06:57:00.511Z,1013.99
2018-01-23T06:57:59.908Z,1014.02
2018-01-23T06:58:59.989Z,1014.02
2018-01-23T06:59:59.998Z,1014.02
2018-01-23T07:00:59.855Z,1014.09
2018-01-23T07:02:00.641Z,1014.09
2018-01-23T07:02:59.856Z,1014.11
2018-01-23T07:04:00.876Z,1014.11
2018-01-23T07:04:59.901Z,1014.14
2018-01-23T07:05:59.872Z,1014.11
2018-01-23T07:07:00.115Z,1014.12
2018-01-23T07:07:59.877Z,1014.14
2018-01-23T07:09:00.593Z,1014.15
2018-01-23T07:10:00.209Z,1014.15
2018-01-23T07:11:00.096Z,1014.16
2018-01-23T07:12:00.146Z,1014.23
2018-01-23T07:12:59.933Z,1014.24
2018-01-23T07:14:00.317Z,1014.23
2018-01-23T07:14:59.924Z,1014.25
2018-01-23T07:15:59.945Z,1014.26
2018-01-23T07:16:59.961Z,1014.26
2018-01-23T07:18:00.006Z,1014.33
2018-01-23T07:19:00.476Z,1014.33
2018-01-23T07:19:59.981Z,1014.29
2018-01-23T07:21:00.014Z,1014.33
2018-01-23T07:21:59.916Z,1014.33
2018-01-23T07:23:01.446Z,1014.35
2018-01-23T07:24:00.588Z,1014.41
2018-01-23T07:24:59.992Z,1014.38
2018-01-23T07:26:01.071Z,1014.42
2018-01-23T07:26:59.905Z,1014.46
2018-01-23T07:27:59.842Z,1014.45
2018-01-23T07:29:00.672Z,1014.45
2018-01-23T07:30:01.072Z,1014.47
2018-01-23T07:30:59.997Z,1014.56
2018-01-23T07:32:01.648Z,1014.56
2018-01-23T07:32:59.867Z,1014.58
2018-01-23T07:33:59.849Z,1014.63
2018-01-23T07:34:59.937Z,1014.62
2018-01-23T07:35:59.978Z,1014.66
2018-01-23T07:37:00.433Z,1014.65
2018-01-23T07:37:59.376Z,1014.67
2018-01-23T07:38:59.383Z,1014.67
2018-01-23T07:39:59.428Z,1014.63
2018-01-23T07:40:59.408Z,1014.67
2018-01-23T07:41:59.569Z,1014.68
2018-01-23T07:42:59.371Z,1014.71
2018-01-23T07:43:59.421Z,1014.74
2018-01-23T07:44:59.347Z,1014.76
2018-01-23T07:45:59.352Z,1014.79
2018-01-23T07:46:59.464Z,1014.81
2018-01-23T07:47:59.368Z,1014.83
2018-01-23T07:48:59.361Z,1014.82
2018-01-23T07:49:59.356Z,1014.82
2018-01-23T07:50:59.389Z,1014.81
2018-01-23T07:51:59.395Z,1014.86
2018-01-23T07:52:59.417Z,1014.86
2018-01-23T07:53:59.317Z,1014.86
2018-01-23T07:54:59.440Z,1014.91
2018-01-23T07:55:59.375Z,1014.89
2018-01-23T07:56:59.392Z,1014.9
2018-01-23T07:57:59.478Z,1014.91
2018-01-23T07:58:59.390Z,1014.95
2018-01-23T07:59:59.361Z,1014.95
2018-01-23T08:00:59.416Z,1014.98
2018-01-23T08:01:59.427Z,1015.02
2018-01-23T08:02:59.725Z,1015
2018-01-23T08:03:59.362Z,1015.03
2018-01-23T08:04:59.368Z,1015.04
2018-01-23T08:05:59.414Z,1015.04
2018-01-23T08:06:59.437Z,1015.05
2018-01-23T08:07:59.722Z,1015.04
2018-01-23T08:08:59.510Z,1015.06
2018-01-23T08:09:59.467Z,1015.02
2018-01-23T08:10:59.852Z,1015.08
2018-01-23T08:11:59.544Z,1015.06
2018-01-23T08:12:59.637Z,1015.09
2018-01-23T08:13:59.519Z,1015.08
2018-01-23T08:14:59.567Z,1015.05
2018-01-23T08:15:59.456Z,1015.05
2018-01-23T08:16:59.520Z,1015.06
2018-01-23T08:17:59.544Z,1015.02
2018-01-23T08:18:59.421Z,1015
2018-01-23T08:19:59.510Z,1015.03
2018-01-23T08:20:59.467Z,1015.04
2018-01-23T08:21:59.460Z,1015.01
2018-01-23T08:22:59.553Z,1015.04
2018-01-23T08:23:59.481Z,1015
2018-01-23T08:24:59.665Z,1015.02
2018-01-23T08:25:59.486Z,1015.05
2018-01-23T08:26:59.482Z,1015.05
2018-01-23T08:27:59.475Z,1015.1
2018-01-23T08:28:59.496Z,1015.12
2018-01-23T08:30:01.618Z,1015.14
2018-01-23T08:30:59.650Z,1015.17
2018-01-23T08:31:59.478Z,1015.16
2018-01-23T08:32:59.654Z,1015.18
2018-01-23T08:34:00.141Z,1015.19
2018-01-23T08:34:59.711Z,1015.16
2018-01-23T08:35:59.452Z,1015.18
2018-01-23T08:37:00.061Z,1015.19
2018-01-23T08:38:00.806Z,1015.21
2018-01-23T08:38:59.644Z,1015.18
2018-01-23T08:39:59.672Z,1015.23
2018-01-23T08:40:59.615Z,1015.27
2018-01-23T08:41:59.561Z,1015.26
2018-01-23T08:42:59.477Z,1015.25
2018-01-23T08:43:59.634Z,1015.26
2018-01-23T08:44:59.565Z,1015.28
2018-01-23T08:45:59.545Z,1015.28
2018-01-23T08:46:59.573Z,1015.27
2018-01-23T08:47:59.635Z,1015.31
2018-01-23T08:48:59.519Z,1015.28
2018-01-23T08:49:59.551Z,1015.31
2018-01-23T08:50:59.633Z,1015.29
2018-01-23T08:51:59.600Z,1015.35
2018-01-23T08:52:59.542Z,1015.36
2018-01-23T08:53:59.600Z,1015.35
2018-01-23T08:54:59.478Z,1015.39
2018-01-23T08:55:59.601Z,1015.42
2018-01-23T08:56:59.582Z,1015.38
2018-01-23T08:57:59.559Z,1015.44
2018-01-23T08:58:59.583Z,1015.43
2018-01-23T08:59:59.534Z,1015.4
2018-01-23T09:00:59.592Z,1015.4
2018-01-23T09:01:59.672Z,1015.43
2018-01-23T09:02:59.554Z,1015.45
2018-01-23T09:03:59.575Z,1015.43
2018-01-23T09:04:59.543Z,1015.49
2018-01-23T09:05:59.601Z,1015.5
2018-01-23T09:06:59.541Z,1015.54
2018-01-23T09:07:59.630Z,1015.56
2018-01-23T09:08:59.644Z,1015.53
2018-01-23T09:09:59.559Z,1015.59
2018-01-23T09:10:59.638Z,1015.58
2018-01-23T09:11:59.569Z,1015.58
2018-01-23T09:12:59.592Z,1015.55
2018-01-23T09:13:59.661Z,1015.54
2018-01-23T09:14:59.615Z,1015.59
2018-01-23T09:15:59.566Z,1015.62
2018-01-23T09:16:59.652Z,1015.64
2018-01-23T09:17:59.624Z,1015.62
2018-01-23T09:18:59.977Z,1015.62
2018-01-23T09:19:59.652Z,1015.67
2018-01-23T09:20:59.578Z,1015.68
2018-01-23T09:21:59.585Z,1015.68
2018-01-23T09:22:59.592Z,1015.71
2018-01-23T09:24:00.374Z,1015.72
2018-01-23T09:24:59.681Z,1015.83
2018-01-23T09:25:59.585Z,1015.8
2018-01-23T09:26:59.630Z,1015.82
2018-01-23T09:27:59.586Z,1015.79
2018-01-23T09:28:59.590Z,1015.8
2018-01-23T09:29:59.629Z,1015.86
2018-01-23T09:30:59.637Z,1015.87
2018-01-23T09:31:59.601Z,1015.9
2018-01-23T09:33:00.224Z,1015.91
2018-01-23T09:33:59.572Z,1015.99
2018-01-23T09:34:59.577Z,1015.96
2018-01-23T09:35:59.612Z,1015.97
2018-01-23T09:36:59.612Z,1015.97
2018-01-23T09:37:59.720Z,1016.03
2018-01-23T09:38:59.703Z,1016.05
2018-01-23T09:39:59.714Z,1016.04
2018-01-23T09:40:59.765Z,1016.08
2018-01-23T09:41:59.649Z,1016.09
2018-01-23T09:42:59.678Z,1016.18
2018-01-23T09:43:59.684Z,1016.21
2018-01-23T09:44:59.743Z,1016.23
2018-01-23T09:45:59.686Z,1016.29
2018-01-23T09:46:59.621Z,1016.33
2018-01-23T09:47:59.638Z,1016.33
2018-01-23T09:48:59.997Z,1016.26
2018-01-23T09:49:59.647Z,1016.24
2018-01-23T09:50:59.721Z,1016.27
2018-01-23T09:51:59.982Z,1016.26
2018-01-23T09:53:00.271Z,1016.23
2018-01-23T09:53:59.608Z,1016.23
2018-01-23T09:54:59.631Z,1016.23
2018-01-23T09:55:59.692Z,1016.24
2018-01-23T09:57:00.193Z,1016.25
2018-01-23T09:57:59.698Z,1016.22
2018-01-23T09:58:59.660Z,1016.22
2018-01-23T09:59:59.650Z,1016.21
2018-01-23T10:00:59.643Z,1016.23
2018-01-23T10:01:59.757Z,1016.19
2018-01-23T10:02:59.918Z,1016.23
2018-01-23T10:03:59.670Z,1016.23
2018-01-23T10:04:59.713Z,1016.21
2018-01-23T10:05:59.708Z,1016.22
2018-01-23T10:06:59.687Z,1016.23
2018-01-23T10:07:59.789Z,1016.29
2018-01-23T10:08:59.985Z,1016.24
2018-01-23T10:09:59.695Z,1016.23
2018-01-23T10:10:59.692Z,1016.24
2018-01-23T10:11:59.737Z,1016.23
2018-01-23T10:12:59.738Z,1016.24
2018-01-23T10:13:59.764Z,1016.24
2018-01-23T10:14:59.757Z,1016.26
2018-01-23T10:15:59.776Z,1016.28
2018-01-23T10:16:59.733Z,1016.26
2018-01-23T10:17:59.717Z,1016.25
2018-01-23T10:18:59.704Z,1016.27
2018-01-23T10:19:59.755Z,1016.23
2018-01-23T10:21:00.119Z,1016.24
2018-01-23T10:21:59.727Z,1016.23
2018-01-23T10:22:59.755Z,1016.23
2018-01-23T10:23:59.715Z,1016.27
2018-01-23T10:24:59.763Z,1016.33
2018-01-23T10:25:59.730Z,1016.29
2018-01-23T10:26:59.762Z,1016.31
2018-01-23T10:27:59.787Z,1016.34
2018-01-23T10:28:59.723Z,1016.32
2018-01-23T10:29:59.709Z,1016.32
2018-01-23T10:30:59.814Z,1016.34
2018-01-23T10:31:59.717Z,1016.34
2018-01-23T10:32:59.724Z,1016.31
2018-01-23T10:33:59.733Z,1016.28
2018-01-23T10:34:59.778Z,1016.3
2018-01-23T10:35:59.632Z,1016.31
2018-01-23T10:36:59.708Z,1016.3
2018-01-23T10:37:59.927Z,1016.27
2018-01-23T10:38:59.711Z,1016.29
2018-01-23T10:39:59.744Z,1016.34
2018-01-23T10:41:00.198Z,1016.28
2018-01-23T10:41:59.750Z,1016.34
2018-01-23T10:42:59.800Z,1016.31
2018-01-23T10:43:59.859Z,1016.3
2018-01-23T10:44:59.786Z,1016.31
2018-01-23T10:45:59.872Z,1016.34
2018-01-23T10:46:59.765Z,1016.29
2018-01-23T10:47:59.765Z,1016.32
2018-01-23T10:49:00.026Z,1016.29
2018-01-23T10:49:59.783Z,1016.3
2018-01-23T10:50:59.773Z,1016.26
2018-01-23T10:51:59.758Z,1016.29
2018-01-23T10:52:59.744Z,1016.27
2018-01-23T10:53:59.815Z,1016.28
2018-01-23T10:54:59.780Z,1016.23
2018-01-23T10:55:59.784Z,1016.23
2018-01-23T10:56:59.705Z,1016.25
2018-01-23T10:57:59.736Z,1016.27
2018-01-23T10:58:59.802Z,1016.2
2018-01-23T10:59:59.821Z,1016.23
2018-01-23T11:00:59.850Z,1016.21
2018-01-23T11:01:59.846Z,1016.2
2018-01-23T11:02:59.777Z,1016.2
2018-01-23T11:03:59.814Z,1016.21
2018-01-23T11:04:59.744Z,1016.19
2018-01-23T11:05:59.819Z,1016.16
2018-01-23T11:06:59.865Z,1016.18
2018-01-23T11:07:59.959Z,1016.15
2018-01-23T11:08:59.999Z,1016.17
2018-01-23T11:09:59.962Z,1016.13
2018-01-23T11:10:59.911Z,1016.12
2018-01-23T11:11:59.921Z,1016.14
2018-01-23T11:12:59.967Z,1016.14
2018-01-23T11:13:59.928Z,1016.12
2018-01-23T11:14:59.935Z,1016.09
2018-01-23T11:15:59.942Z,1016.07
2018-01-23T11:16:59.906Z,1016.11
2018-01-23T11:18:00.031Z,1016.05
2018-01-23T11:18:59.961Z,1016.06
2018-01-23T11:19:59.924Z,1015.97
2018-01-23T11:20:59.906Z,1016
2018-01-23T11:22:00.005Z,1015.99
2018-01-23T11:23:00.705Z,1015.97
2018-01-23T11:23:59.985Z,1015.95
2018-01-23T11:24:59.924Z,1015.91
2018-01-23T11:25:59.886Z,1015.92
2018-01-23T11:26:59.879Z,1015.91
2018-01-23T11:27:59.940Z,1015.92
2018-01-23T11:29:00.007Z,1015.89
2018-01-23T11:29:59.946Z,1015.9
2018-01-23T11:30:59.903Z,1015.92
2018-01-23T11:32:00.011Z,1015.91
2018-01-23T11:32:59.888Z,1015.93
2018-01-23T11:33:59.963Z,1015.88
2018-01-23T11:34:59.939Z,1015.86
2018-01-23T11:35:59.908Z,1015.86
2018-01-23T11:36:59.902Z,1015.89
2018-01-23T11:37:59.938Z,1015.88
2018-01-23T11:39:00.007Z,1015.87
2018-01-23T11:40:00.259Z,1015.87
2018-01-23T11:40:59.985Z,1015.85
2018-01-23T11:41:59.950Z,1015.86
2018-01-23T11:42:59.973Z,1015.85
2018-01-23T11:43:59.952Z,1015.85
2018-01-23T11:45:00.067Z,1015.89
2018-01-23T11:46:00.121Z,1015.84
2018-01-23T11:46:59.986Z,1015.83
2018-01-23T11:47:59.991Z,1015.82
2018-01-23T11:49:00.014Z,1015.84
2018-01-23T11:50:00.040Z,1015.82
2018-01-23T11:51:00.010Z,1015.8
2018-01-23T11:52:00.017Z,1015.73
2018-01-23T11:53:00.014Z,1015.77
2018-01-23T11:54:00.115Z,1015.81
2018-01-23T11:55:00.038Z,1015.8
2018-01-23T11:55:59.994Z,1015.78
2018-01-23T11:56:59.970Z,1015.8
2018-01-23T11:57:59.963Z,1015.8
2018-01-23T11:58:59.928Z,1015.76
2018-01-23T12:00:00.006Z,1015.76
2018-01-23T12:00:59.994Z,1015.71
2018-01-23T12:02:00.100Z,1015.78
2018-01-23T12:03:00.055Z,1015.74
2018-01-23T12:03:59.933Z,1015.73
2018-01-23T12:04:59.988Z,1015.74
2018-01-23T12:06:00.000Z,1015.73
2018-01-23T12:07:00.042Z,1015.75
2018-01-23T12:08:00.013Z,1015.7
2018-01-23T12:08:59.074Z,1015.73